Time;durP1;ratioP1;P1;durP2;ratioP2;P2;SDS_P1;SDS_P2;PMS_P1;PMS_P2;Temp;Humidity;BMP_temperature;BMP_pressure;BME280_temperature;BME280_humidity;BME280_pressure;Samples;Min_cycle;Max_cycle;Signal;HPM_P1;HPM_P2
2022/10/30 00:00:09;;;;;;;116.30;56.53;;;;;;;13.25;100.00;101189.44;5111211;28;20040;-69
2022/10/30 00:02:35;;;;;;;109.50;53.20;;;;;;;13.29;100.00;101196.25;5110559;28;20031;-69
2022/10/30 00:05:00;;;;;;;111.45;56.25;;;;;;;13.37;100.00;101206.38;5110873;28;20023;-70
2022/10/30 00:07:26;;;;;;;108.50;56.63;;;;;;;13.36;100.00;101202.00;5110855;28;20032;-69
2022/10/30 00:09:51;;;;;;;117.97;58.05;;;;;;;13.37;100.00;101193.78;5109968;28;20024;-69
2022/10/30 00:12:16;;;;;;;121.32;59.40;;;;;;;13.41;100.00;101191.66;5110125;28;20054;-68
2022/10/30 00:14:42;;;;;;;112.60;58.22;;;;;;;13.26;100.00;101168.75;5111860;27;20044;-68
2022/10/30 00:17:07;;;;;;;124.20;61.63;;;;;;;13.38;100.00;101178.44;5115714;27;20020;-68
2022/10/30 00:19:33;;;;;;;127.03;60.03;;;;;;;13.31;100.00;101166.50;5110256;28;20035;-68
2022/10/30 00:22:01;;;;;;;126.72;59.90;;;;;;;13.39;100.00;101182.88;5113483;27;20024;-68
2022/10/30 00:24:27;;;;;;;119.97;59.78;;;;;;;13.39;100.00;101182.88;5110196;28;20047;-68
2022/10/30 00:26:52;;;;;;;115.18;59.92;;;;;;;13.22;100.00;101157.34;5110083;28;20023;-68
2022/10/30 00:29:18;;;;;;;115.03;57.78;;;;;;;13.39;100.00;101188.25;5110519;28;20042;-69
2022/10/30 00:31:44;;;;;;;115.93;58.58;;;;;;;13.33;100.00;101172.63;5110501;28;20054;-69
2022/10/30 00:34:09;;;;;;;112.25;57.42;;;;;;;13.39;100.00;101180.19;5110224;28;20514;-69
2022/10/30 00:36:35;;;;;;;104.93;54.63;;;;;;;13.26;100.00;101168.75;5108510;28;20510;-69
2022/10/30 00:39:00;;;;;;;109.25;53.08;;;;;;;13.23;100.00;101166.31;5110576;28;20031;-71
2022/10/30 00:41:25;;;;;;;115.78;57.53;;;;;;;13.32;100.00;101185.22;5109929;28;20042;-70
2022/10/30 00:43:52;;;;;;;108.35;55.85;;;;;;;13.30;100.00;101175.56;5109431;28;20032;-70
2022/10/30 00:46:23;;;;;;;113.65;55.22;;;;;;;13.30;100.00;101175.56;5109872;28;20043;-70
2022/10/30 00:48:59;;;;;;;109.75;55.05;;;;;;;13.29;100.00;101184.66;5109308;28;20775;-70
2022/10/30 00:51:27;;;;;;;106.72;53.72;;;;;;;13.31;100.00;101178.13;5109710;28;20111;-70
2022/10/30 00:53:58;;;;;;;102.57;52.15;;;;;;;13.33;100.00;101180.69;5109560;28;20027;-70
2022/10/30 00:56:24;;;;;;;99.22;50.17;;;;;;;13.30;100.00;101171.03;5107546;28;20027;-70
2022/10/30 00:58:58;;;;;;;97.22;50.90;;;;;;;13.29;100.00;101160.41;5109667;28;20024;-69
2022/10/30 01:01:28;;;;;;;101.43;54.28;;;;;;;13.24;100.00;101159.91;5108887;28;20027;-69
2022/10/30 01:03:56;;;;;;;107.97;57.63;;;;;;;13.23;100.00;101159.06;5108912;28;20028;-70
2022/10/30 01:06:23;;;;;;;115.78;59.97;;;;;;;13.20;100.00;101155.78;5108758;28;20031;-70
2022/10/30 01:08:50;;;;;;;116.38;61.97;;;;;;;13.19;100.00;101157.63;5108945;27;20088;-70
2022/10/30 01:11:16;;;;;;;115.03;59.95;;;;;;;13.17;100.00;101154.22;5107118;28;20027;-70
2022/10/30 01:13:45;;;;;;;112.07;60.45;;;;;;;13.09;100.00;101145.09;5108537;28;20027;-70
2022/10/30 01:16:11;;;;;;;111.93;58.28;;;;;;;13.14;100.00;101150.91;5108126;28;20039;-69
2022/10/30 01:18:58;;;;;;;110.55;58.55;;;;;;;13.15;100.00;101155.31;5108377;28;20039;-70
2022/10/30 01:21:49;;;;;;;111.18;56.92;;;;;;;13.12;100.00;101156.44;5106217;28;20031;-70
2022/10/30 01:24:41;;;;;;;105.43;55.42;;;;;;;13.10;100.00;101141.41;5108827;28;20038;-70
2022/10/30 01:27:22;;;;;;;102.13;55.10;;;;;;;13.09;100.00;101153.16;5106759;28;20024;-70
2022/10/30 01:29:59;;;;;;;103.85;55.67;;;;;;;12.93;100.00;101118.56;5108209;28;20467;-69
2022/10/30 01:33:06;;;;;;;105.65;54.20;;;;;;;13.06;100.00;101154.25;5108042;28;20042;-68
2022/10/30 01:35:40;;;;;;;105.35;54.80;;;;;;;13.09;100.00;101139.69;5106178;28;20032;-68
2022/10/30 01:38:17;;;;;;;98.90;53.10;;;;;;;13.05;100.00;101133.72;5108123;28;20051;-69
2022/10/30 01:40:44;;;;;;;98.60;52.90;;;;;;;13.06;100.00;101130.03;5108307;28;20024;-69
2022/10/30 01:43:10;;;;;;;97.97;52.33;;;;;;;13.03;100.00;101121.38;5108689;28;20039;-69
2022/10/30 01:45:47;;;;;;;92.15;52.47;;;;;;;13.05;100.00;101132.84;5107484;28;20047;-68
2022/10/30 01:48:34;;;;;;;92.65;52.72;;;;;;;13.02;100.00;101116.94;5106752;28;20032;-69
2022/10/30 01:51:11;;;;;;;94.55;51.88;;;;;;;12.97;100.00;101108.38;5107325;27;20526;-69
2022/10/30 01:54:00;;;;;;;83.32;47.72;;;;;;;12.97;100.00;101111.91;5109951;27;20088;-69
2022/10/30 01:56:51;;;;;;;86.82;47.70;;;;;;;12.97;100.00;101113.78;5106355;28;20023;-69
2022/10/30 01:59:44;;;;;;;99.20;50.95;;;;;;;12.93;100.00;101109.63;5107670;27;20055;-69
2022/10/30 02:02:10;;;;;;;85.18;46.97;;;;;;;12.94;100.00;101114.91;5106292;28;20076;-69
2022/10/30 02:04:36;;;;;;;85.78;48.05;;;;;;;12.92;100.00;101114.16;5106244;27;20123;-69
2022/10/30 02:07:02;;;;;;;86.75;47.85;;;;;;;12.92;100.00;101126.75;5107385;28;20027;-69
2022/10/30 02:09:29;;;;;;;76.35;44.85;;;;;;;12.81;100.00;101108.84;5106225;28;20111;-69
2022/10/30 02:11:55;;;;;;;78.53;44.05;;;;;;;12.91;100.00;101123.22;5107828;28;20566;-69
2022/10/30 02:14:26;;;;;;;77.07;45.13;;;;;;;12.83;100.00;101116.78;5108039;28;20031;-69
2022/10/30 02:16:55;;;;;;;75.70;43.90;;;;;;;12.73;100.00;101105.06;5107675;28;20036;-69
2022/10/30 02:19:20;;;;;;;80.45;43.38;;;;;;;12.73;100.00;101105.94;5107068;28;20876;-69
2022/10/30 02:21:46;;;;;;;70.47;42.45;;;;;;;12.88;100.00;101119.94;5111265;27;20039;-69
2022/10/30 02:24:11;;;;;;;79.35;43.92;;;;;;;12.88;100.00;101110.03;5110082;28;20038;-69
2022/10/30 02:26:37;;;;;;;79.00;43.65;;;;;;;12.69;100.00;101092.84;5107238;28;20479;-69
2022/10/30 02:29:03;;;;;;;81.95;44.33;;;;;;;12.67;100.00;101086.75;5110913;28;20032;-69
2022/10/30 02:31:28;;;;;;;76.95;44.53;;;;;;;12.83;100.00;101111.41;5112340;28;20566;-69
2022/10/30 02:33:54;;;;;;;84.95;45.00;;;;;;;12.83;100.00;101112.25;5112636;27;20035;-69
2022/10/30 02:36:19;;;;;;;75.97;42.45;;;;;;;12.70;100.00;101090.03;5110437;28;20016;-69
2022/10/30 02:38:45;;;;;;;83.50;46.25;;;;;;;12.76;100.00;101084.13;5112091;28;20027;-69
2022/10/30 02:41:10;;;;;;;86.47;46.53;;;;;;;12.72;100.00;101084.53;5111690;28;20088;-69
2022/10/30 02:43:36;;;;;;;84.72;47.38;;;;;;;12.68;100.00;101083.94;5111566;28;20028;-68
2022/10/30 02:46:01;;;;;;;78.03;43.10;;;;;;;12.68;100.00;101080.38;5109670;28;20035;-69
2022/10/30 02:48:29;;;;;;;89.40;46.92;;;;;;;12.65;100.00;101077.94;5111473;28;20047;-69
2022/10/30 02:51:01;;;;;;;81.28;46.20;;;;;;;12.65;100.00;101078.81;5111261;28;20027;-69
2022/10/30 02:53:27;;;;;;;77.78;44.50;;;;;;;12.80;100.00;101131.34;5111761;28;20063;-69
2022/10/30 02:55:53;;;;;;;81.47;45.67;;;;;;;12.85;100.00;101117.50;5111583;28;20096;-69
2022/10/30 02:58:18;;;;;;;87.72;45.05;;;;;;;12.82;100.00;101115.94;5110397;28;20135;-69
2022/10/30 03:00:44;;;;;;;80.47;45.15;;;;;;;12.83;100.00;101119.47;5111779;27;20031;-69
2022/10/30 03:03:09;;;;;;;81.10;44.78;;;;;;;12.91;100.00;101114.28;5111219;28;20026;-68
2022/10/30 03:05:35;;;;;;;79.40;44.33;;;;;;;12.89;100.00;101109.03;5111612;28;20039;-68
2022/10/30 03:08:00;;;;;;;82.35;44.78;;;;;;;12.98;100.00;101110.09;5110372;28;20075;-69
2022/10/30 03:10:25;;;;;;;81.78;44.83;;;;;;;12.78;100.00;101084.00;5109194;28;20088;-68
2022/10/30 03:12:51;;;;;;;80.18;43.20;;;;;;;12.78;100.00;101092.09;5112977;27;20043;-68
2022/10/30 03:15:17;;;;;;;82.20;44.30;;;;;;;12.75;100.00;101097.72;5111199;28;20071;-68
2022/10/30 03:17:42;;;;;;;90.07;46.65;;;;;;;12.68;100.00;101096.53;5114829;27;20088;-68
2022/10/30 03:20:08;;;;;;;87.07;45.20;;;;;;;12.85;100.00;101114.81;5111548;27;20023;-68
2022/10/30 03:22:34;;;;;;;83.60;44.85;;;;;;;12.86;100.00;101113.81;5111124;28;20602;-68
2022/10/30 03:24:59;;;;;;;96.97;48.95;;;;;;;12.89;100.00;101102.78;5111383;28;20033;-68
2022/10/30 03:27:25;;;;;;;87.45;47.10;;;;;;;12.89;100.00;101100.97;5111309;28;20023;-68
2022/10/30 03:29:50;;;;;;;85.53;44.72;;;;;;;12.60;100.00;101058.63;5111189;28;20031;-68
2022/10/30 03:32:15;;;;;;;81.43;44.25;;;;;;;12.73;100.00;101083.53;5110785;28;20027;-68
2022/10/30 03:34:41;;;;;;;88.18;46.25;;;;;;;12.67;100.00;101074.13;5110137;28;20031;-68
2022/10/30 03:37:06;;;;;;;84.75;45.63;;;;;;;12.70;100.00;101068.50;5110612;28;20398;-68
2022/10/30 03:39:32;;;;;;;93.85;47.13;;;;;;;12.70;100.00;101073.88;5110302;28;20058;-68
2022/10/30 03:41:57;;;;;;;91.40;46.80;;;;;;;12.85;100.00;101099.50;5110689;28;20023;-68
2022/10/30 03:44:23;;;;;;;98.93;49.72;;;;;;;12.79;100.00;101089.25;5111706;28;20042;-68
2022/10/30 03:46:48;;;;;;;96.15;48.17;;;;;;;12.85;100.00;101102.22;5110416;28;20051;-68
2022/10/30 03:49:13;;;;;;;87.85;45.92;;;;;;;12.88;100.00;101109.16;5111020;27;20474;-69
2022/10/30 03:51:39;;;;;;;92.15;46.95;;;;;;;12.81;100.00;101092.69;5110550;28;20142;-68
2022/10/30 03:54:04;;;;;;;89.60;46.88;;;;;;;12.85;100.00;101098.66;5109812;28;20020;-69
2022/10/30 03:56:30;;;;;;;91.25;47.60;;;;;;;12.77;100.00;101090.38;5110297;28;20095;-69
2022/10/30 03:58:55;;;;;;;95.03;47.47;;;;;;;12.87;100.00;101118.22;5109940;28;20024;-70
2022/10/30 04:01:20;;;;;;;92.93;47.38;;;;;;;12.75;100.00;101101.28;5110583;28;20036;-69
2022/10/30 04:03:46;;;;;;;87.78;46.08;;;;;;;12.88;100.00;101095.69;5110117;28;20047;-69
2022/10/30 04:06:11;;;;;;;78.93;43.13;;;;;;;12.92;100.00;101108.78;5110692;28;20445;-70
2022/10/30 04:08:37;;;;;;;79.47;43.70;;;;;;;12.77;100.00;101090.38;5108796;28;20079;-69
2022/10/30 04:11:03;;;;;;;76.63;42.03;;;;;;;12.92;100.00;101105.22;5110350;28;20027;-69
2022/10/30 04:13:28;;;;;;;81.05;42.90;;;;;;;12.94;100.00;101103.25;5107631;28;20039;-69
2022/10/30 04:15:54;;;;;;;78.80;44.20;;;;;;;12.91;100.00;101104.38;5109228;28;20029;-69
2022/10/30 04:18:19;;;;;;;86.88;44.83;;;;;;;12.92;100.00;101111.47;5111952;27;20046;-70
2022/10/30 04:20:45;;;;;;;88.88;46.17;;;;;;;12.89;100.00;101105.47;5109698;28;20106;-72
2022/10/30 04:23:17;;;;;;;74.63;42.03;;;;;;;12.96;100.00;101112.06;5111840;27;20042;-69
2022/10/30 04:25:42;;;;;;;85.03;43.85;;;;;;;12.78;100.00;101086.69;5108101;28;20080;-69
2022/10/30 04:28:09;;;;;;;80.70;42.25;;;;;;;12.85;100.00;101088.75;5107731;28;20102;-70
2022/10/30 04:30:35;;;;;;;75.25;42.83;;;;;;;12.95;100.00;101107.66;5108694;28;20038;-68
2022/10/30 04:33:04;;;;;;;78.25;41.88;;;;;;;12.88;100.00;101099.25;5109324;28;20043;-68
2022/10/30 04:35:31;;;;;;;79.80;41.38;;;;;;;12.94;100.00;101117.59;5105509;27;20064;-69
2022/10/30 04:38:03;;;;;;;79.95;43.53;;;;;;;12.94;100.00;101112.22;5108235;28;20383;-68
2022/10/30 04:40:31;;;;;;;76.97;42.83;;;;;;;12.93;100.00;101115.84;5109184;28;20039;-69
2022/10/30 04:42:57;;;;;;;73.72;39.22;;;;;;;12.94;100.00;101097.88;5108987;27;20042;-69
2022/10/30 04:45:23;;;;;;;74.35;41.15;;;;;;;12.93;100.00;101094.31;5109214;28;20020;-68
2022/10/30 04:47:48;;;;;;;74.30;40.13;;;;;;;12.93;100.00;101090.78;5108033;28;20040;-69
2022/10/30 04:50:14;;;;;;;73.43;40.88;;;;;;;12.94;100.00;101092.50;5108024;28;20027;-69
2022/10/30 04:52:39;;;;;;;77.07;41.72;;;;;;;12.94;100.00;101098.75;5108503;28;20104;-70
2022/10/30 04:55:07;;;;;;;71.65;40.83;;;;;;;12.80;100.00;101071.28;5108363;28;20483;-69
2022/10/30 04:57:34;;;;;;;73.45;40.28;;;;;;;12.93;100.00;101101.56;5108552;28;20027;-70
2022/10/30 04:59:59;;;;;;;70.15;41.33;;;;;;;12.93;100.00;101098.88;5108889;28;20015;-70
2022/10/30 05:02:25;;;;;;;74.30;41.95;;;;;;;12.95;100.00;101107.66;5108684;28;20035;-70
2022/10/30 05:04:50;;;;;;;77.03;41.17;;;;;;;12.95;100.00;101111.22;5108847;28;20088;-70
2022/10/30 05:07:17;;;;;;;77.10;42.22;;;;;;;12.93;100.00;101104.25;5108555;28;20035;-71
2022/10/30 05:09:42;;;;;;;76.57;42.15;;;;;;;12.97;100.00;101103.00;5108815;28;20235;-71
2022/10/30 05:12:09;;;;;;;72.45;41.03;;;;;;;12.98;100.00;101105.56;5106099;28;20106;-71
2022/10/30 05:14:34;;;;;;;75.78;41.40;;;;;;;12.98;100.00;101108.25;5108575;28;20038;-70
2022/10/30 05:17:00;;;;;;;64.10;36.75;;;;;;;12.88;100.00;101082.25;5108045;28;20035;-69
2022/10/30 05:19:25;;;;;;;60.65;35.25;;;;;;;12.97;100.00;101097.63;5108315;28;20023;-70
2022/10/30 05:21:51;;;;;;;61.17;35.40;;;;;;;12.96;100.00;101095.91;5108707;28;20250;-69
2022/10/30 05:24:16;;;;;;;66.70;38.45;;;;;;;12.94;100.00;101104.13;5108712;28;20047;-70
2022/10/30 05:26:42;;;;;;;58.47;34.38;;;;;;;12.94;100.00;101093.34;5107340;28;20031;-69
2022/10/30 05:29:08;;;;;;;63.72;36.92;;;;;;;12.95;100.00;101105.81;5107090;28;20035;-69
2022/10/30 05:31:33;;;;;;;72.07;39.67;;;;;;;12.94;100.00;101104.13;5107563;28;20106;-69
2022/10/30 05:33:59;;;;;;;66.90;37.25;;;;;;;12.96;100.00;101107.53;5101056;28;20736;-69
2022/10/30 05:36:24;;;;;;;68.20;39.88;;;;;;;12.97;100.00;101109.22;5108097;28;20028;-69
2022/10/30 05:38:50;;;;;;;68.57;38.38;;;;;;;12.95;100.00;101110.34;5108068;28;20051;-69
2022/10/30 05:41:16;;;;;;;69.10;38.38;;;;;;;12.98;100.00;101124.41;5107914;27;20110;-70
2022/10/30 05:43:41;;;;;;;66.13;36.47;;;;;;;12.98;100.00;101132.50;5108091;28;20046;-69
2022/10/30 05:46:06;;;;;;;59.13;34.08;;;;;;;12.86;100.00;101097.66;5107582;28;20051;-70
2022/10/30 05:48:33;;;;;;;51.33;32.17;;;;;;;12.97;100.00;101125.38;5107607;28;20047;-70
2022/10/30 05:50:59;;;;;;;57.55;33.70;;;;;;;13.01;100.00;101131.41;5108336;28;20045;-70
2022/10/30 05:53:24;;;;;;;54.22;32.17;;;;;;;12.99;100.00;101131.53;5108372;28;20031;-71
2022/10/30 05:55:50;;;;;;;52.35;31.80;;;;;;;12.83;100.00;101101.47;5107099;28;20046;-71
2022/10/30 05:58:16;;;;;;;56.30;31.52;;;;;;;13.01;100.00;101142.19;5108781;28;20031;-71
2022/10/30 06:00:43;;;;;;;50.15;29.70;;;;;;;12.83;100.00;101112.25;5107264;28;20023;-71
2022/10/30 07:01:55;;;;;;;45.35;28.55;;;;;;;13.10;100.00;101155.69;5088754;27;20385;-70
2022/10/30 07:04:20;;;;;;;47.25;29.13;;;;;;;13.10;100.00;101161.09;5085726;28;20487;-69
2022/10/30 07:06:46;;;;;;;47.67;28.42;;;;;;;13.17;100.00;101175.78;5100108;28;20027;-71
2022/10/30 07:09:11;;;;;;;42.05;26.67;;;;;;;13.20;100.00;101171.94;5101740;28;20442;-70
2022/10/30 07:11:39;;;;;;;41.83;25.80;;;;;;;13.18;100.00;101149.66;5107028;27;20024;-70
2022/10/30 07:14:04;;;;;;;46.38;27.15;;;;;;;13.28;100.00;101154.16;5107151;28;20534;-70
2022/10/30 07:16:29;;;;;;;47.72;28.15;;;;;;;13.25;100.00;101142.75;5106374;28;20019;-70
2022/10/30 07:18:55;;;;;;;47.67;28.80;;;;;;;13.33;100.00;101157.31;5122278;28;20382;-70
2022/10/30 07:21:20;;;;;;;46.30;28.20;;;;;;;13.35;100.00;101147.25;5125712;27;20038;-70
2022/10/30 07:23:46;;;;;;;48.75;28.95;;;;;;;13.30;100.00;101146.78;5111971;28;20490;-70
2022/10/30 07:26:11;;;;;;;47.35;26.75;;;;;;;13.41;100.00;101164.72;5125119;27;20106;-70
2022/10/30 07:28:37;;;;;;;49.28;29.88;;;;;;;13.40;100.00;101163.00;5113495;27;20022;-70
2022/10/30 07:31:02;;;;;;;47.50;27.73;;;;;;;13.44;100.00;101156.38;5116712;27;20377;-70
2022/10/30 07:33:27;;;;;;;55.22;31.00;;;;;;;13.43;100.00;101160.91;5120788;27;20035;-70
2022/10/30 07:35:53;;;;;;;42.42;26.83;;;;;;;13.46;100.00;101151.72;5091464;28;20043;-70
2022/10/30 07:38:18;;;;;;;43.75;26.25;;;;;;;13.42;100.00;101143.03;5094479;28;20078;-68
2022/10/30 07:40:51;;;;;;;46.03;27.33;;;;;;;13.42;100.00;101132.25;5089779;28;20627;-69
2022/10/30 07:43:16;;;;;;;42.20;27.02;;;;;;;13.51;100.00;101147.63;5104617;28;20498;-70
2022/10/30 07:45:44;;;;;;;48.60;27.70;;;;;;;13.55;100.00;101167.09;5104226;28;20077;-69
2022/10/30 07:48:09;;;;;;;45.42;27.83;;;;;;;13.54;100.00;101152.75;5103424;28;20084;-70
2022/10/30 07:50:35;;;;;;;45.53;27.20;;;;;;;13.62;100.00;101150.25;5105462;28;20028;-70
2022/10/30 07:53:00;;;;;;;46.58;27.40;;;;;;;13.62;100.00;101146.69;5105469;28;20054;-70
2022/10/30 07:55:25;;;;;;;44.08;27.45;;;;;;;13.56;100.00;101144.53;5105430;28;20031;-70
2022/10/30 07:57:51;;;;;;;40.08;26.27;;;;;;;13.63;100.00;101145.69;5105121;28;20024;-70
2022/10/30 08:00:17;;;;;;;48.70;28.00;;;;;;;13.62;100.00;101146.69;5112015;28;20101;-69
2022/10/30 08:02:42;;;;;;;50.58;28.38;;;;;;;13.52;100.00;101126.94;5095102;28;20039;-70
2022/10/30 08:05:08;;;;;;;44.53;28.15;;;;;;;13.64;100.00;101147.41;5091388;28;20028;-70
2022/10/30 08:07:35;;;;;;;43.63;27.23;;;;;;;13.68;100.00;101160.47;5091690;28;20391;-69
2022/10/30 08:10:01;;;;;;;45.97;27.08;;;;;;;13.70;100.00;101154.94;5090058;28;20443;-70
2022/10/30 08:12:26;;;;;;;50.45;28.85;;;;;;;13.72;100.00;101158.38;5091638;28;20028;-70
2022/10/30 08:14:52;;;;;;;44.78;27.75;;;;;;;13.75;100.00;101160.81;5091480;28;20062;-69
2022/10/30 08:17:19;;;;;;;42.95;27.50;;;;;;;13.77;100.00;101157.97;5099103;28;20027;-70
2022/10/30 08:19:44;;;;;;;47.92;28.38;;;;;;;13.76;100.00;101146.31;5110928;28;20055;-70
2022/10/30 08:22:10;;;;;;;43.78;27.00;;;;;;;13.73;100.00;101138.50;5111887;28;20047;-69
2022/10/30 08:24:36;;;;;;;49.83;28.48;;;;;;;13.76;100.00;101145.50;5111640;28;20528;-69
2022/10/30 08:27:03;;;;;;;52.33;28.98;;;;;;;13.66;100.00;101129.25;5111358;28;20033;-69
2022/10/30 08:29:28;;;;;;;50.17;29.52;;;;;;;13.78;100.00;101160.53;5110128;28;20076;-69
2022/10/30 08:31:54;;;;;;;53.05;29.50;;;;;;;13.81;100.00;101151.31;5111545;28;20496;-69
2022/10/30 08:34:20;;;;;;;49.95;29.52;;;;;;;13.82;100.00;101150.31;5111691;28;20457;-70
2022/10/30 08:36:49;;;;;;;47.00;28.73;;;;;;;13.76;100.00;101142.81;5111131;28;20046;-70
2022/10/30 08:39:15;;;;;;;48.22;28.48;;;;;;;13.86;100.00;101147.22;5111268;28;20028;-70
2022/10/30 08:41:41;;;;;;;51.03;30.20;;;;;;;13.90;100.00;101148.69;5110945;28;20080;-70
2022/10/30 08:44:06;;;;;;;43.88;27.55;;;;;;;13.79;100.00;101135.28;5111012;28;20486;-68
2022/10/30 08:46:31;;;;;;;52.15;30.75;;;;;;;13.77;100.00;101135.41;5111126;28;20025;-70
2022/10/30 08:48:57;;;;;;;50.38;29.25;;;;;;;13.81;100.00;101154.88;5110974;28;20525;-69
2022/10/30 08:51:22;;;;;;;50.40;29.50;;;;;;;13.77;100.00;101140.81;5110132;28;20016;-70
2022/10/30 08:53:48;;;;;;;44.30;27.63;;;;;;;13.83;100.00;101146.66;5111155;28;20019;-69
2022/10/30 08:56:14;;;;;;;49.00;30.05;;;;;;;13.83;100.00;101147.50;5111253;28;20478;-70
2022/10/30 08:58:40;;;;;;;44.28;26.80;;;;;;;13.83;100.00;101144.78;5110451;28;20107;-70
2022/10/30 09:01:05;;;;;;;47.22;28.63;;;;;;;13.77;100.00;101126.50;5109044;28;20042;-70
2022/10/30 09:03:31;;;;;;;52.28;29.40;;;;;;;13.86;100.00;101144.53;5109228;28;20027;-69
2022/10/30 09:05:58;;;;;;;46.75;27.33;;;;;;;13.86;100.00;101136.44;5111073;28;20049;-69
2022/10/30 09:08:24;;;;;;;48.22;29.33;;;;;;;13.85;100.00;101139.28;5120618;27;20030;-69
2022/10/30 09:10:57;;;;;;;41.60;27.08;;;;;;;13.93;100.00;101152.94;5124510;27;20473;-69
2022/10/30 09:13:23;;;;;;;51.90;30.13;;;;;;;13.95;100.00;101151.81;5131383;27;20405;-69
2022/10/30 09:15:48;;;;;;;44.88;29.48;;;;;;;13.99;100.00;101142.44;5124945;27;20449;-70
2022/10/30 09:18:14;;;;;;;49.70;30.27;;;;;;;14.01;100.00;101162.06;5111753;27;20022;-70
2022/10/30 09:20:39;;;;;;;49.05;29.30;;;;;;;13.93;100.00;101153.78;5110468;27;20411;-69
2022/10/30 09:23:05;;;;;;;53.92;30.00;;;;;;;14.01;100.00;101164.75;5109641;28;20390;-69
2022/10/30 09:25:30;;;;;;;43.63;27.48;;;;;;;14.05;100.00;101157.22;5111043;28;20028;-69
2022/10/30 09:27:56;;;;;;;48.55;29.15;;;;;;;13.99;100.00;101147.84;5110942;28;20049;-70
2022/10/30 09:30:21;;;;;;;50.83;29.35;;;;;;;14.08;100.00;101157.81;5109771;28;20020;-69
2022/10/30 09:32:57;;;;;;;53.55;30.60;;;;;;;14.05;100.00;101151.84;5109446;28;20023;-69
2022/10/30 09:35:23;;;;;;;48.13;28.92;;;;;;;13.99;100.00;101145.16;5092946;28;20044;-70
2022/10/30 09:37:49;;;;;;;56.13;29.70;;;;;;;14.00;100.00;101146.88;5090868;28;20039;-71
2022/10/30 09:40:37;;;;;;;52.58;30.27;;;;;;;14.01;100.00;101145.88;5094373;28;20028;-69
2022/10/30 09:43:15;;;;;;;50.60;28.98;;;;;;;13.95;100.00;101132.94;5092267;28;20047;-69
2022/10/30 09:45:55;;;;;;;45.83;28.60;;;;;;;13.96;100.00;101137.31;5100088;28;20471;-70
2022/10/30 09:48:42;;;;;;;45.15;28.20;;;;;;;14.09;100.00;101153.28;5092151;28;20023;-70
2022/10/30 09:51:21;;;;;;;45.35;27.38;;;;;;;14.07;100.00;101144.47;5105867;28;20054;-69
2022/10/30 09:54:14;;;;;;;46.17;27.77;;;;;;;14.22;100.00;101154.75;5098863;28;20097;-70
2022/10/30 09:56:47;;;;;;;41.20;25.77;;;;;;;14.16;100.00;101138.25;5105895;28;20501;-65
2022/10/30 09:59:29;;;;;;;48.33;27.73;;;;;;;14.12;100.00;101143.06;5105482;27;20526;-69
2022/10/30 10:02:08;;;;;;;50.63;31.15;;;;;;;14.20;100.00;101158.56;5094492;27;20040;-68
2022/10/30 10:04:38;;;;;;;49.35;28.83;;;;;;;14.17;100.00;101151.63;5106132;28;20023;-70
2022/10/30 10:07:18;;;;;;;51.75;31.27;;;;;;;14.17;100.00;101161.53;5104759;28;20118;-68
2022/10/30 10:09:46;;;;;;;55.47;31.10;;;;;;;14.24;100.00;101152.78;5098869;28;20106;-70
2022/10/30 10:12:37;;;;;;;49.20;29.88;;;;;;;14.23;100.00;101151.09;5102948;28;20037;-65
2022/10/30 10:15:15;;;;;;;47.28;30.45;;;;;;;14.15;100.00;101140.09;5093413;28;20058;-64
2022/10/30 10:17:45;;;;;;;51.30;29.50;;;;;;;14.14;100.00;101124.03;5099310;28;20039;-64
2022/10/30 10:20:32;;;;;;;54.15;31.42;;;;;;;14.25;100.00;101148.25;5088543;28;20417;-64
2022/10/30 10:23:03;;;;;;;46.30;28.92;;;;;;;14.23;100.00;101150.25;5092478;28;20028;-66
2022/10/30 10:25:30;;;;;;;48.83;28.85;;;;;;;14.17;100.00;101139.97;5101233;28;20098;-65
2022/10/30 10:28:14;;;;;;;45.60;28.20;;;;;;;14.32;100.00;101147.53;5100464;28;20024;-65
2022/10/30 10:30:52;;;;;;;46.10;27.77;;;;;;;14.32;100.00;101142.16;5092007;28;20375;-65
2022/10/30 10:33:46;;;;;;;46.70;28.40;;;;;;;14.29;100.00;101138.91;5102240;28;20509;-65
2022/10/30 10:36:33;;;;;;;51.25;29.38;;;;;;;14.26;100.00;101136.47;5099122;28;20040;-64
2022/10/30 10:39:15;;;;;;;49.67;28.65;;;;;;;14.24;100.00;101136.59;5107755;28;20043;-66
2022/10/30 10:41:49;;;;;;;52.72;30.30;;;;;;;14.25;100.00;101132.91;5103069;28;20395;-65
2022/10/30 10:44:26;;;;;;;50.38;28.63;;;;;;;14.38;100.00;101130.81;5106409;28;20425;-64
2022/10/30 10:47:08;;;;;;;47.38;28.02;;;;;;;14.31;100.00;101118.03;5105843;28;20066;-65
2022/10/30 10:49:49;;;;;;;51.08;29.52;;;;;;;14.40;100.00;101136.06;5097052;28;20465;-66
2022/10/30 10:52:28;;;;;;;51.58;29.33;;;;;;;14.36;100.00;101122.03;5106129;28;20039;-64
2022/10/30 10:55:02;;;;;;;53.80;30.10;;;;;;;14.33;100.00;101116.03;5096905;28;20577;-65
2022/10/30 10:57:33;;;;;;;51.30;30.42;;;;;;;14.34;100.00;101126.69;5087295;28;20383;-64
2022/10/30 11:00:06;;;;;;;50.42;30.20;;;;;;;14.37;100.00;101126.41;5092861;28;20052;-64
2022/10/30 11:02:44;;;;;;;51.38;30.10;;;;;;;14.38;100.00;101128.09;5091345;28;20116;-65
2022/10/30 11:05:42;;;;;;;46.80;28.42;;;;;;;14.40;100.00;101128.84;5093206;28;20051;-65
2022/10/30 11:08:24;;;;;;;53.10;31.23;;;;;;;14.39;100.00;101127.13;5084956;28;20032;-66
2022/10/30 11:11:00;;;;;;;52.05;30.30;;;;;;;14.44;100.00;101122.16;5097307;28;20502;-65
2022/10/30 11:13:40;;;;;;;54.95;30.70;;;;;;;14.44;100.00;101118.63;5104970;28;20051;-64
2022/10/30 11:16:12;;;;;;;45.13;28.10;;;;;;;14.46;100.00;101124.72;5104844;28;20054;-64
2022/10/30 11:18:37;;;;;;;51.88;29.95;;;;;;;14.32;100.00;101098.97;5103695;28;20343;-64
2022/10/30 11:21:15;;;;;;;49.58;29.52;;;;;;;14.48;100.00;101128.97;5099075;28;20047;-65
2022/10/30 11:23:43;;;;;;;54.53;29.77;;;;;;;14.46;100.00;101117.47;5093424;28;20034;-65
2022/10/30 11:26:19;;;;;;;56.47;31.98;;;;;;;14.54;100.00;101119.50;5100955;28;20093;-64
2022/10/30 11:29:04;;;;;;;52.10;30.15;;;;;;;14.52;100.00;101108.84;5106077;28;20039;-65
2022/10/30 11:31:37;;;;;;;49.60;30.05;;;;;;;14.56;100.00;101109.38;5101630;28;20047;-69
2022/10/30 11:34:18;;;;;;;45.15;28.08;;;;;;;14.60;100.00;101111.66;5097018;28;20023;-70
2022/10/30 11:36:48;;;;;;;43.05;27.48;;;;;;;14.60;100.00;101102.69;5099630;27;20036;-70
2022/10/30 11:39:19;;;;;;;45.88;28.73;;;;;;;14.62;100.00;101104.28;5104878;27;20082;-70
2022/10/30 11:41:54;;;;;;;47.63;28.70;;;;;;;14.72;100.00;101101.56;5100757;28;20036;-69
2022/10/30 11:44:21;;;;;;;46.55;27.55;;;;;;;14.78;100.00;101093.78;5102347;28;20058;-69
2022/10/30 11:46:47;;;;;;;45.40;27.73;;;;;;;14.73;100.00;101097.88;5107375;27;20494;-69
2022/10/30 11:49:36;;;;;;;50.08;29.33;;;;;;;14.73;100.00;101097.88;5107132;27;20053;-70
2022/10/30 11:52:02;;;;;;;49.90;28.92;;;;;;;14.55;100.00;101068.06;5114682;27;20088;-70
2022/10/30 11:54:28;;;;;;;53.10;30.00;;;;;;;14.69;100.00;101093.75;5113408;27;20043;-70
2022/10/30 11:56:54;;;;;;;47.60;29.05;;;;;;;14.71;100.00;101092.66;5110639;27;20031;-70
2022/10/30 11:59:23;;;;;;;49.20;29.63;;;;;;;14.67;100.00;101076.88;5111515;27;20070;-69
2022/10/30 12:02:16;;;;;;;54.20;32.00;;;;;;;14.71;100.00;101084.53;5098554;27;20792;-69
2022/10/30 12:04:42;;;;;;;56.58;33.75;;;;;;;14.74;100.00;101078.00;5108954;27;20563;-67
2022/10/30 12:07:22;;;;;;;50.80;30.70;;;;;;;14.77;100.00;101080.41;5111805;27;20031;-68